Au Sable, Michigan
Current Conditions -  °F | °C
As of 5:13 PM on Tuesday 25 Nov 2014 (Local Time) from KOSC Reporting Station
Overcast Overcast  
Wind Chill: 23°   Ceiling: 4300
Heat Index: 31°   Visibility: 10mi
Dew Point: 26°   Wind: 9mph
Humidity: 81%   Direction: 270°W
Pressure: 30.03"   Gusts: NA
Location:  44.4539°N, 83.4813°W
Report Text: KOSC 252213Z AUTO 27008KT 10SM BKN043 OVC049 00/M03 A3003 RMK AO2 T10071036
Loading
Personal Weather Stations






























Interactive Weather Map New forecast layout! Learn more

10-Day Weather Forecast

Advertisements
Track Severe Weather on mobile